sensor_id;sensor_type;location;lat;lon;timestamp;P1;durP1;ratioP1;P2;durP2;ratioP2
74233;SDS011;62591;55.764;37.718;2023-02-28T00:01:35;7.00;;;3.88;;
74233;SDS011;62591;55.764;37.718;2023-02-28T00:04:04;8.55;;;3.75;;
74233;SDS011;62591;55.764;37.718;2023-02-28T00:06:37;9.80;;;4.43;;
74233;SDS011;62591;55.764;37.718;2023-02-28T00:09:06;7.60;;;4.20;;
74233;SDS011;62591;55.764;37.718;2023-02-28T00:11:35;8.68;;;3.45;;
74233;SDS011;62591;55.764;37.718;2023-02-28T00:14:07;7.47;;;3.78;;
74233;SDS011;62591;55.764;37.718;2023-02-28T00:16:35;7.25;;;3.63;;
74233;SDS011;62591;55.764;37.718;2023-02-28T00:19:04;9.05;;;3.88;;
74233;SDS011;62591;55.764;37.718;2023-02-28T00:21:32;7.47;;;4.20;;
74233;SDS011;62591;55.764;37.718;2023-02-28T00:24:02;7.95;;;4.10;;
74233;SDS011;62591;55.764;37.718;2023-02-28T00:26:32;7.72;;;4.07;;
74233;SDS011;62591;55.764;37.718;2023-02-28T00:29:01;7.18;;;3.65;;
74233;SDS011;62591;55.764;37.718;2023-02-28T00:31:30;6.97;;;4.13;;
74233;SDS011;62591;55.764;37.718;2023-02-28T00:34:00;7.00;;;3.92;;
74233;SDS011;62591;55.764;37.718;2023-02-28T00:36:31;9.30;;;4.43;;
74233;SDS011;62591;55.764;37.718;2023-02-28T00:38:59;8.43;;;3.97;;
74233;SDS011;62591;55.764;37.718;2023-02-28T00:41:31;7.88;;;4.00;;
74233;SDS011;62591;55.764;37.718;2023-02-28T00:44:00;9.38;;;4.88;;
74233;SDS011;62591;55.764;37.718;2023-02-28T00:46:31;8.35;;;4.28;;
74233;SDS011;62591;55.764;37.718;2023-02-28T00:49:01;8.32;;;3.65;;
74233;SDS011;62591;55.764;37.718;2023-02-28T00:51:29;6.70;;;3.47;;
74233;SDS011;62591;55.764;37.718;2023-02-28T00:53:58;9.38;;;4.30;;
74233;SDS011;62591;55.764;37.718;2023-02-28T00:56:26;8.18;;;4.13;;
74233;SDS011;62591;55.764;37.718;2023-02-28T00:58:56;9.30;;;4.60;;
74233;SDS011;62591;55.764;37.718;2023-02-28T01:01:25;6.80;;;3.58;;
74233;SDS011;62591;55.764;37.718;2023-02-28T01:03:54;7.35;;;3.45;;
74233;SDS011;62591;55.764;37.718;2023-02-28T01:06:22;6.88;;;3.08;;
74233;SDS011;62591;55.764;37.718;2023-02-28T01:08:52;7.80;;;4.10;;
74233;SDS011;62591;55.764;37.718;2023-02-28T01:11:21;7.95;;;3.70;;
74233;SDS011;62591;55.764;37.718;2023-02-28T01:13:53;7.80;;;3.60;;
74233;SDS011;62591;55.764;37.718;2023-02-28T01:16:24;10.40;;;4.35;;
74233;SDS011;62591;55.764;37.718;2023-02-28T01:18:53;9.55;;;4.03;;
74233;SDS011;62591;55.764;37.718;2023-02-28T01:21:22;8.63;;;4.00;;
74233;SDS011;62591;55.764;37.718;2023-02-28T01:23:51;6.82;;;3.83;;
74233;SDS011;62591;55.764;37.718;2023-02-28T01:26:21;7.60;;;4.22;;
74233;SDS011;62591;55.764;37.718;2023-02-28T01:28:50;8.23;;;4.03;;
74233;SDS011;62591;55.764;37.718;2023-02-28T01:31:19;8.18;;;3.60;;
74233;SDS011;62591;55.764;37.718;2023-02-28T01:33:50;9.48;;;3.97;;
74233;SDS011;62591;55.764;37.718;2023-02-28T01:36:20;8.70;;;4.32;;
74233;SDS011;62591;55.764;37.718;2023-02-28T01:38:50;11.20;;;3.85;;
74233;SDS011;62591;55.764;37.718;2023-02-28T01:41:20;8.18;;;3.63;;
74233;SDS011;62591;55.764;37.718;2023-02-28T01:43:55;7.82;;;4.00;;
74233;SDS011;62591;55.764;37.718;2023-02-28T01:46:25;7.25;;;3.78;;
74233;SDS011;62591;55.764;37.718;2023-02-28T01:48:56;6.75;;;3.78;;
74233;SDS011;62591;55.764;37.718;2023-02-28T01:51:31;7.35;;;3.95;;
74233;SDS011;62591;55.764;37.718;2023-02-28T01:54:06;6.53;;;3.70;;
74233;SDS011;62591;55.764;37.718;2023-02-28T01:56:41;9.15;;;3.80;;
74233;SDS011;62591;55.764;37.718;2023-02-28T01:59:14;6.43;;;3.40;;
74233;SDS011;62591;55.764;37.718;2023-02-28T02:01:49;7.68;;;3.90;;
74233;SDS011;62591;55.764;37.718;2023-02-28T02:04:19;7.15;;;3.88;;
74233;SDS011;62591;55.764;37.718;2023-02-28T02:06:51;7.80;;;4.03;;
74233;SDS011;62591;55.764;37.718;2023-02-28T02:09:20;7.30;;;3.58;;
74233;SDS011;62591;55.764;37.718;2023-02-28T02:11:51;6.35;;;3.33;;
74233;SDS011;62591;55.764;37.718;2023-02-28T02:17:19;6.63;;;3.60;;
74233;SDS011;62591;55.764;37.718;2023-02-28T02:23:12;7.82;;;3.90;;
74233;SDS011;62591;55.764;37.718;2023-02-28T02:25:53;7.10;;;3.78;;
74233;SDS011;62591;55.764;37.718;2023-02-28T02:28:38;7.18;;;3.40;;
74233;SDS011;62591;55.764;37.718;2023-02-28T02:34:53;6.72;;;3.50;;
74233;SDS011;62591;55.764;37.718;2023-02-28T02:37:32;8.05;;;3.72;;
74233;SDS011;62591;55.764;37.718;2023-02-28T02:40:09;6.15;;;3.53;;
74233;SDS011;62591;55.764;37.718;2023-02-28T02:42:42;6.18;;;3.63;;
74233;SDS011;62591;55.764;37.718;2023-02-28T02:45:16;6.82;;;3.55;;
74233;SDS011;62591;55.764;37.718;2023-02-28T02:47:50;8.35;;;4.13;;
74233;SDS011;62591;55.764;37.718;2023-02-28T02:50:24;10.10;;;4.13;;
74233;SDS011;62591;55.764;37.718;2023-02-28T02:52:58;9.07;;;4.32;;
74233;SDS011;62591;55.764;37.718;2023-02-28T02:55:31;8.25;;;4.82;;
74233;SDS011;62591;55.764;37.718;2023-02-28T03:00:37;9.50;;;4.72;;
74233;SDS011;62591;55.764;37.718;2023-02-28T03:03:09;9.02;;;4.93;;
74233;SDS011;62591;55.764;37.718;2023-02-28T03:05:44;11.85;;;4.65;;
74233;SDS011;62591;55.764;37.718;2023-02-28T03:08:15;7.65;;;3.92;;
74233;SDS011;62591;55.764;37.718;2023-02-28T03:10:45;9.85;;;4.43;;
74233;SDS011;62591;55.764;37.718;2023-02-28T03:13:32;13.13;;;7.38;;
74233;SDS011;62591;55.764;37.718;2023-02-28T03:19:20;16.60;;;8.25;;
74233;SDS011;62591;55.764;37.718;2023-02-28T03:22:04;8.85;;;4.57;;
74233;SDS011;62591;55.764;37.718;2023-02-28T03:24:54;9.85;;;4.68;;
74233;SDS011;62591;55.764;37.718;2023-02-28T03:27:31;8.98;;;4.75;;
74233;SDS011;62591;55.764;37.718;2023-02-28T03:30:09;8.05;;;3.92;;
74233;SDS011;62591;55.764;37.718;2023-02-28T03:32:42;7.60;;;4.25;;
74233;SDS011;62591;55.764;37.718;2023-02-28T03:35:20;9.05;;;4.22;;
74233;SDS011;62591;55.764;37.718;2023-02-28T03:37:53;10.55;;;4.75;;
74233;SDS011;62591;55.764;37.718;2023-02-28T03:40:28;8.77;;;4.10;;
74233;SDS011;62591;55.764;37.718;2023-02-28T03:43:01;9.02;;;4.00;;
74233;SDS011;62591;55.764;37.718;2023-02-28T03:45:35;7.50;;;4.00;;
74233;SDS011;62591;55.764;37.718;2023-02-28T03:48:06;7.82;;;4.13;;
74233;SDS011;62591;55.764;37.718;2023-02-28T03:50:41;7.43;;;4.38;;
74233;SDS011;62591;55.764;37.718;2023-02-28T03:53:16;16.10;;;7.97;;
74233;SDS011;62591;55.764;37.718;2023-02-28T03:55:47;7.85;;;3.85;;
74233;SDS011;62591;55.764;37.718;2023-02-28T03:58:21;6.93;;;3.70;;
74233;SDS011;62591;55.764;37.718;2023-02-28T04:00:56;7.70;;;3.97;;
74233;SDS011;62591;55.764;37.718;2023-02-28T04:03:36;7.07;;;3.53;;
74233;SDS011;62591;55.764;37.718;2023-02-28T04:06:07;6.93;;;3.42;;
74233;SDS011;62591;55.764;37.718;2023-02-28T04:08:42;6.93;;;3.85;;
74233;SDS011;62591;55.764;37.718;2023-02-28T04:11:14;6.70;;;3.58;;
74233;SDS011;62591;55.764;37.718;2023-02-28T04:13:47;8.52;;;3.95;;
74233;SDS011;62591;55.764;37.718;2023-02-28T04:16:16;6.32;;;3.58;;
74233;SDS011;62591;55.764;37.718;2023-02-28T04:19:00;5.35;;;2.72;;
74233;SDS011;62591;55.764;37.718;2023-02-28T04:21:32;6.57;;;3.20;;
74233;SDS011;62591;55.764;37.718;2023-02-28T04:24:04;6.68;;;3.58;;
74233;SDS011;62591;55.764;37.718;2023-02-28T04:26:34;7.05;;;3.22;;
74233;SDS011;62591;55.764;37.718;2023-02-28T04:29:04;6.97;;;3.50;;
74233;SDS011;62591;55.764;37.718;2023-02-28T04:31:33;6.25;;;3.50;;
74233;SDS011;62591;55.764;37.718;2023-02-28T04:34:02;6.20;;;2.97;;
74233;SDS011;62591;55.764;37.718;2023-02-28T04:36:31;6.28;;;2.85;;
74233;SDS011;62591;55.764;37.718;2023-02-28T04:38:59;9.25;;;3.28;;
74233;SDS011;62591;55.764;37.718;2023-02-28T04:41:29;6.07;;;3.03;;
74233;SDS011;62591;55.764;37.718;2023-02-28T04:43:58;5.55;;;3.20;;
74233;SDS011;62591;55.764;37.718;2023-02-28T04:46:27;6.38;;;3.15;;
74233;SDS011;62591;55.764;37.718;2023-02-28T04:48:59;6.97;;;2.92;;
74233;SDS011;62591;55.764;37.718;2023-02-28T04:51:28;7.22;;;3.50;;
74233;SDS011;62591;55.764;37.718;2023-02-28T04:53:57;6.88;;;2.95;;
74233;SDS011;62591;55.764;37.718;2023-02-28T04:56:25;5.43;;;2.50;;
74233;SDS011;62591;55.764;37.718;2023-02-28T04:58:56;5.05;;;2.95;;
74233;SDS011;62591;55.764;37.718;2023-02-28T05:01:26;5.70;;;2.80;;
74233;SDS011;62591;55.764;37.718;2023-02-28T05:03:58;5.22;;;2.70;;
74233;SDS011;62591;55.764;37.718;2023-02-28T05:06:30;6.97;;;3.20;;
74233;SDS011;62591;55.764;37.718;2023-02-28T05:09:00;5.72;;;2.75;;
74233;SDS011;62591;55.764;37.718;2023-02-28T05:11:30;5.25;;;2.90;;
74233;SDS011;62591;55.764;37.718;2023-02-28T05:14:03;5.95;;;2.90;;
74233;SDS011;62591;55.764;37.718;2023-02-28T05:16:32;5.03;;;2.33;;
74233;SDS011;62591;55.764;37.718;2023-02-28T05:19:01;7.03;;;2.92;;
74233;SDS011;62591;55.764;37.718;2023-02-28T05:21:31;4.85;;;2.63;;
74233;SDS011;62591;55.764;37.718;2023-02-28T05:24:02;5.72;;;3.08;;
74233;SDS011;62591;55.764;37.718;2023-02-28T05:26:34;5.45;;;2.78;;
74233;SDS011;62591;55.764;37.718;2023-02-28T05:29:05;5.40;;;2.63;;
74233;SDS011;62591;55.764;37.718;2023-02-28T05:31:34;6.22;;;2.70;;
74233;SDS011;62591;55.764;37.718;2023-02-28T05:34:02;5.65;;;2.90;;
74233;SDS011;62591;55.764;37.718;2023-02-28T05:36:31;7.13;;;3.38;;
74233;SDS011;62591;55.764;37.718;2023-02-28T05:39:00;5.78;;;2.80;;
74233;SDS011;62591;55.764;37.718;2023-02-28T05:41:29;5.65;;;3.35;;
74233;SDS011;62591;55.764;37.718;2023-02-28T05:43:58;6.00;;;2.85;;
74233;SDS011;62591;55.764;37.718;2023-02-28T05:46:28;5.57;;;2.80;;
74233;SDS011;62591;55.764;37.718;2023-02-28T05:48:57;5.53;;;3.10;;
74233;SDS011;62591;55.764;37.718;2023-02-28T05:51:27;7.32;;;2.90;;
74233;SDS011;62591;55.764;37.718;2023-02-28T05:53:58;5.97;;;2.97;;
74233;SDS011;62591;55.764;37.718;2023-02-28T05:56:28;5.72;;;2.72;;
74233;SDS011;62591;55.764;37.718;2023-02-28T05:58:56;6.97;;;3.50;;
74233;SDS011;62591;55.764;37.718;2023-02-28T06:01:32;7.50;;;3.08;;
74233;SDS011;62591;55.764;37.718;2023-02-28T06:04:03;6.00;;;2.83;;
74233;SDS011;62591;55.764;37.718;2023-02-28T06:06:33;5.57;;;2.80;;
74233;SDS011;62591;55.764;37.718;2023-02-28T06:09:03;5.50;;;2.65;;
74233;SDS011;62591;55.764;37.718;2023-02-28T06:11:32;7.15;;;3.15;;
74233;SDS011;62591;55.764;37.718;2023-02-28T06:14:01;11.43;;;3.00;;
74233;SDS011;62591;55.764;37.718;2023-02-28T06:16:32;5.68;;;2.63;;
74233;SDS011;62591;55.764;37.718;2023-02-28T06:19:03;9.07;;;3.92;;
74233;SDS011;62591;55.764;37.718;2023-02-28T06:21:34;5.88;;;3.25;;
74233;SDS011;62591;55.764;37.718;2023-02-28T06:24:03;5.28;;;2.85;;
74233;SDS011;62591;55.764;37.718;2023-02-28T06:26:31;6.40;;;2.80;;
74233;SDS011;62591;55.764;37.718;2023-02-28T06:29:00;7.18;;;3.10;;
74233;SDS011;62591;55.764;37.718;2023-02-28T06:31:29;4.95;;;2.85;;
74233;SDS011;62591;55.764;37.718;2023-02-28T06:34:00;8.13;;;3.63;;
74233;SDS011;62591;55.764;37.718;2023-02-28T06:36:28;4.95;;;2.72;;
74233;SDS011;62591;55.764;37.718;2023-02-28T06:38:57;5.10;;;2.83;;
74233;SDS011;62591;55.764;37.718;2023-02-28T06:41:26;6.15;;;3.17;;
74233;SDS011;62591;55.764;37.718;2023-02-28T06:43:59;6.53;;;2.92;;
74233;SDS011;62591;55.764;37.718;2023-02-28T06:46:29;5.93;;;3.38;;
74233;SDS011;62591;55.764;37.718;2023-02-28T06:48:59;5.97;;;3.13;;
74233;SDS011;62591;55.764;37.718;2023-02-28T06:51:27;6.63;;;2.72;;
74233;SDS011;62591;55.764;37.718;2023-02-28T06:53:56;5.78;;;2.85;;
74233;SDS011;62591;55.764;37.718;2023-02-28T06:56:25;6.15;;;3.22;;
74233;SDS011;62591;55.764;37.718;2023-02-28T06:58:53;4.63;;;2.42;;
74233;SDS011;62591;55.764;37.718;2023-02-28T07:01:22;6.53;;;3.38;;
74233;SDS011;62591;55.764;37.718;2023-02-28T07:03:51;8.95;;;3.30;;
74233;SDS011;62591;55.764;37.718;2023-02-28T07:06:21;6.63;;;3.20;;
74233;SDS011;62591;55.764;37.718;2023-02-28T07:08:50;5.97;;;2.97;;
74233;SDS011;62591;55.764;37.718;2023-02-28T07:11:20;5.07;;;2.90;;
74233;SDS011;62591;55.764;37.718;2023-02-28T07:13:49;5.53;;;2.90;;
74233;SDS011;62591;55.764;37.718;2023-02-28T07:16:18;5.38;;;3.05;;
74233;SDS011;62591;55.764;37.718;2023-02-28T07:18:46;7.40;;;3.40;;
74233;SDS011;62591;55.764;37.718;2023-02-28T07:21:16;6.47;;;2.50;;
74233;SDS011;62591;55.764;37.718;2023-02-28T07:23:45;6.38;;;2.83;;
74233;SDS011;62591;55.764;37.718;2023-02-28T07:26:15;5.53;;;2.72;;
74233;SDS011;62591;55.764;37.718;2023-02-28T07:28:46;7.13;;;3.13;;
74233;SDS011;62591;55.764;37.718;2023-02-28T07:31:16;6.07;;;3.50;;
74233;SDS011;62591;55.764;37.718;2023-02-28T07:33:45;8.20;;;3.38;;
74233;SDS011;62591;55.764;37.718;2023-02-28T07:36:14;7.70;;;3.55;;
74233;SDS011;62591;55.764;37.718;2023-02-28T07:38:47;6.60;;;2.80;;
74233;SDS011;62591;55.764;37.718;2023-02-28T07:41:17;5.05;;;2.90;;
74233;SDS011;62591;55.764;37.718;2023-02-28T07:43:49;5.00;;;2.00;;
74233;SDS011;62591;55.764;37.718;2023-02-28T07:46:21;8.10;;;3.33;;
74233;SDS011;62591;55.764;37.718;2023-02-28T07:48:50;6.10;;;3.13;;
74233;SDS011;62591;55.764;37.718;2023-02-28T07:51:18;6.78;;;3.20;;
74233;SDS011;62591;55.764;37.718;2023-02-28T07:53:49;4.70;;;2.60;;
74233;SDS011;62591;55.764;37.718;2023-02-28T07:56:17;7.25;;;2.40;;
74233;SDS011;62591;55.764;37.718;2023-02-28T07:58:45;6.45;;;3.00;;
74233;SDS011;62591;55.764;37.718;2023-02-28T08:01:14;7.47;;;2.65;;
74233;SDS011;62591;55.764;37.718;2023-02-28T08:03:43;6.22;;;2.70;;
74233;SDS011;62591;55.764;37.718;2023-02-28T08:06:15;6.57;;;3.17;;
74233;SDS011;62591;55.764;37.718;2023-02-28T08:08:45;7.20;;;3.08;;
74233;SDS011;62591;55.764;37.718;2023-02-28T08:11:16;5.38;;;2.63;;
74233;SDS011;62591;55.764;37.718;2023-02-28T08:13:45;5.55;;;2.88;;
74233;SDS011;62591;55.764;37.718;2023-02-28T08:16:14;6.20;;;2.70;;
74233;SDS011;62591;55.764;37.718;2023-02-28T08:18:48;6.03;;;2.95;;
74233;SDS011;62591;55.764;37.718;2023-02-28T08:21:17;5.43;;;3.10;;
74233;SDS011;62591;55.764;37.718;2023-02-28T08:23:46;4.72;;;2.67;;
74233;SDS011;62591;55.764;37.718;2023-02-28T08:26:17;4.88;;;2.97;;
74233;SDS011;62591;55.764;37.718;2023-02-28T08:28:46;9.50;;;3.17;;
74233;SDS011;62591;55.764;37.718;2023-02-28T08:31:15;6.15;;;2.97;;
74233;SDS011;62591;55.764;37.718;2023-02-28T08:33:54;6.10;;;3.22;;
74233;SDS011;62591;55.764;37.718;2023-02-28T08:36:25;6.82;;;2.85;;
74233;SDS011;62591;55.764;37.718;2023-02-28T08:38:56;7.85;;;4.00;;
74233;SDS011;62591;55.764;37.718;2023-02-28T08:41:27;7.38;;;2.88;;
74233;SDS011;62591;55.764;37.718;2023-02-28T08:43:56;10.60;;;3.83;;
74233;SDS011;62591;55.764;37.718;2023-02-28T08:46:25;6.28;;;3.30;;
74233;SDS011;62591;55.764;37.718;2023-02-28T08:48:56;7.50;;;3.35;;
74233;SDS011;62591;55.764;37.718;2023-02-28T08:51:27;5.85;;;2.85;;
74233;SDS011;62591;55.764;37.718;2023-02-28T08:53:58;5.10;;;2.78;;
74233;SDS011;62591;55.764;37.718;2023-02-28T08:56:29;5.68;;;3.22;;
74233;SDS011;62591;55.764;37.718;2023-02-28T08:58:57;5.10;;;2.70;;
74233;SDS011;62591;55.764;37.718;2023-02-28T09:01:26;5.32;;;2.15;;
74233;SDS011;62591;55.764;37.718;2023-02-28T09:03:57;5.75;;;3.00;;
74233;SDS011;62591;55.764;37.718;2023-02-28T09:06:26;4.78;;;2.33;;
74233;SDS011;62591;55.764;37.718;2023-02-28T09:08:56;9.13;;;2.95;;
74233;SDS011;62591;55.764;37.718;2023-02-28T09:11:29;5.60;;;2.85;;
74233;SDS011;62591;55.764;37.718;2023-02-28T09:13:58;5.55;;;2.90;;
74233;SDS011;62591;55.764;37.718;2023-02-28T09:16:27;4.78;;;2.30;;
74233;SDS011;62591;55.764;37.718;2023-02-28T09:18:55;5.13;;;2.50;;
74233;SDS011;62591;55.764;37.718;2023-02-28T09:21:25;5.00;;;2.70;;
74233;SDS011;62591;55.764;37.718;2023-02-28T09:23:55;6.68;;;2.85;;
74233;SDS011;62591;55.764;37.718;2023-02-28T09:26:24;5.68;;;2.50;;
74233;SDS011;62591;55.764;37.718;2023-02-28T09:29:09;4.57;;;2.25;;
74233;SDS011;62591;55.764;37.718;2023-02-28T09:31:38;5.47;;;2.30;;
74233;SDS011;62591;55.764;37.718;2023-02-28T09:34:07;4.57;;;2.42;;
74233;SDS011;62591;55.764;37.718;2023-02-28T09:36:38;4.40;;;2.25;;
74233;SDS011;62591;55.764;37.718;2023-02-28T09:39:12;7.10;;;3.38;;
74233;SDS011;62591;55.764;37.718;2023-02-28T09:41:43;5.85;;;2.28;;
74233;SDS011;62591;55.764;37.718;2023-02-28T09:44:20;4.55;;;2.47;;
74233;SDS011;62591;55.764;37.718;2023-02-28T09:46:57;4.82;;;2.33;;
74233;SDS011;62591;55.764;37.718;2023-02-28T09:49:32;4.50;;;2.30;;
74233;SDS011;62591;55.764;37.718;2023-02-28T09:52:07;4.40;;;2.42;;
74233;SDS011;62591;55.764;37.718;2023-02-28T09:54:39;5.70;;;2.58;;
74233;SDS011;62591;55.764;37.718;2023-02-28T09:57:09;5.43;;;3.00;;
74233;SDS011;62591;55.764;37.718;2023-02-28T09:59:50;8.18;;;2.47;;
74233;SDS011;62591;55.764;37.718;2023-02-28T10:02:46;6.88;;;2.70;;
74233;SDS011;62591;55.764;37.718;2023-02-28T10:05:26;4.25;;;2.45;;
74233;SDS011;62591;55.764;37.718;2023-02-28T10:08:01;4.97;;;2.60;;
74233;SDS011;62591;55.764;37.718;2023-02-28T10:10:36;4.43;;;2.65;;
74233;SDS011;62591;55.764;37.718;2023-02-28T10:13:13;4.93;;;2.65;;
74233;SDS011;62591;55.764;37.718;2023-02-28T10:15:52;5.28;;;2.55;;
74233;SDS011;62591;55.764;37.718;2023-02-28T10:18:26;8.05;;;3.25;;
74233;SDS011;62591;55.764;37.718;2023-02-28T10:20:58;6.70;;;3.17;;
74233;SDS011;62591;55.764;37.718;2023-02-28T10:23:28;5.45;;;3.00;;
74233;SDS011;62591;55.764;37.718;2023-02-28T10:26:05;5.07;;;2.60;;
74233;SDS011;62591;55.764;37.718;2023-02-28T10:28:39;7.82;;;3.10;;
74233;SDS011;62591;55.764;37.718;2023-02-28T10:31:10;5.05;;;2.33;;
74233;SDS011;62591;55.764;37.718;2023-02-28T10:33:43;5.28;;;2.95;;
74233;SDS011;62591;55.764;37.718;2023-02-28T10:36:13;4.68;;;2.35;;
74233;SDS011;62591;55.764;37.718;2023-02-28T10:38:44;5.00;;;2.10;;
74233;SDS011;62591;55.764;37.718;2023-02-28T10:41:17;3.30;;;1.63;;
74233;SDS011;62591;55.764;37.718;2023-02-28T10:46:50;4.85;;;2.65;;
74233;SDS011;62591;55.764;37.718;2023-02-28T10:49:21;6.18;;;2.67;;
74233;SDS011;62591;55.764;37.718;2023-02-28T10:51:52;7.30;;;2.70;;
74233;SDS011;62591;55.764;37.718;2023-02-28T10:54:27;6.65;;;3.10;;
74233;SDS011;62591;55.764;37.718;2023-02-28T10:57:08;5.43;;;2.40;;
74233;SDS011;62591;55.764;37.718;2023-02-28T10:59:44;6.28;;;2.85;;
74233;SDS011;62591;55.764;37.718;2023-02-28T11:02:32;5.63;;;2.65;;
74233;SDS011;62591;55.764;37.718;2023-02-28T11:05:02;4.53;;;2.50;;
74233;SDS011;62591;55.764;37.718;2023-02-28T11:07:51;5.68;;;2.75;;
74233;SDS011;62591;55.764;37.718;2023-02-28T11:10:21;5.97;;;2.80;;
74233;SDS011;62591;55.764;37.718;2023-02-28T11:12:55;5.30;;;2.58;;
74233;SDS011;62591;55.764;37.718;2023-02-28T11:15:27;8.65;;;3.40;;
74233;SDS011;62591;55.764;37.718;2023-02-28T11:17:59;8.20;;;3.17;;
74233;SDS011;62591;55.764;37.718;2023-02-28T11:20:30;6.15;;;3.00;;
74233;SDS011;62591;55.764;37.718;2023-02-28T11:23:02;4.53;;;2.38;;
74233;SDS011;62591;55.764;37.718;2023-02-28T11:25:32;6.10;;;3.22;;
74233;SDS011;62591;55.764;37.718;2023-02-28T11:28:04;5.38;;;3.28;;
74233;SDS011;62591;55.764;37.718;2023-02-28T11:30:35;7.45;;;3.13;;
74233;SDS011;62591;55.764;37.718;2023-02-28T11:33:23;5.47;;;2.83;;
74233;SDS011;62591;55.764;37.718;2023-02-28T11:35:57;7.65;;;2.75;;
74233;SDS011;62591;55.764;37.718;2023-02-28T11:38:30;5.07;;;2.67;;
74233;SDS011;62591;55.764;37.718;2023-02-28T11:41:09;7.43;;;3.17;;
74233;SDS011;62591;55.764;37.718;2023-02-28T11:43:54;5.07;;;2.95;;
74233;SDS011;62591;55.764;37.718;2023-02-28T11:46:33;4.35;;;2.30;;
74233;SDS011;62591;55.764;37.718;2023-02-28T11:49:14;6.20;;;2.90;;
74233;SDS011;62591;55.764;37.718;2023-02-28T11:51:54;6.00;;;3.50;;
74233;SDS011;62591;55.764;37.718;2023-02-28T11:54:29;7.00;;;2.95;;
74233;SDS011;62591;55.764;37.718;2023-02-28T11:57:23;5.07;;;3.03;;
74233;SDS011;62591;55.764;37.718;2023-02-28T12:00:02;8.70;;;3.17;;
74233;SDS011;62591;55.764;37.718;2023-02-28T12:02:48;5.35;;;2.78;;
74233;SDS011;62591;55.764;37.718;2023-02-28T12:05:31;11.57;;;3.03;;
74233;SDS011;62591;55.764;37.718;2023-02-28T12:08:05;8.43;;;3.65;;
74233;SDS011;62591;55.764;37.718;2023-02-28T12:10:44;6.95;;;3.55;;
74233;SDS011;62591;55.764;37.718;2023-02-28T12:13:26;5.05;;;2.97;;
74233;SDS011;62591;55.764;37.718;2023-02-28T12:16:05;5.07;;;2.40;;
74233;SDS011;62591;55.764;37.718;2023-02-28T12:18:56;5.82;;;2.63;;
74233;SDS011;62591;55.764;37.718;2023-02-28T12:21:40;4.72;;;2.97;;
74233;SDS011;62591;55.764;37.718;2023-02-28T12:24:24;4.57;;;2.70;;
74233;SDS011;62591;55.764;37.718;2023-02-28T12:29:40;5.43;;;3.00;;
74233;SDS011;62591;55.764;37.718;2023-02-28T12:32:16;4.93;;;2.40;;
74233;SDS011;62591;55.764;37.718;2023-02-28T12:34:49;6.07;;;3.20;;
74233;SDS011;62591;55.764;37.718;2023-02-28T12:37:22;4.97;;;3.40;;
74233;SDS011;62591;55.764;37.718;2023-02-28T12:40:00;6.78;;;3.25;;
74233;SDS011;62591;55.764;37.718;2023-02-28T12:42:33;6.00;;;3.08;;
74233;SDS011;62591;55.764;37.718;2023-02-28T12:45:08;6.43;;;3.10;;
74233;SDS011;62591;55.764;37.718;2023-02-28T12:47:43;5.43;;;3.17;;
74233;SDS011;62591;55.764;37.718;2023-02-28T12:50:15;5.93;;;2.67;;
74233;SDS011;62591;55.764;37.718;2023-02-28T12:52:49;5.32;;;2.88;;
74233;SDS011;62591;55.764;37.718;2023-02-28T12:55:27;4.50;;;2.72;;
74233;SDS011;62591;55.764;37.718;2023-02-28T12:58:07;3.50;;;2.38;;
74233;SDS011;62591;55.764;37.718;2023-02-28T13:00:46;6.30;;;3.10;;
74233;SDS011;62591;55.764;37.718;2023-02-28T13:03:41;7.25;;;3.17;;
74233;SDS011;62591;55.764;37.718;2023-02-28T13:09:11;4.10;;;2.30;;
74233;SDS011;62591;55.764;37.718;2023-02-28T13:11:42;6.13;;;2.60;;
74233;SDS011;62591;55.764;37.718;2023-02-28T13:14:20;8.40;;;2.95;;
74233;SDS011;62591;55.764;37.718;2023-02-28T13:16:58;5.68;;;2.72;;
74233;SDS011;62591;55.764;37.718;2023-02-28T13:19:30;4.40;;;2.45;;
74233;SDS011;62591;55.764;37.718;2023-02-28T13:22:01;6.15;;;2.80;;
74233;SDS011;62591;55.764;37.718;2023-02-28T13:24:41;6.45;;;2.90;;
74233;SDS011;62591;55.764;37.718;2023-02-28T13:30:01;6.30;;;2.80;;
74233;SDS011;62591;55.764;37.718;2023-02-28T13:33:02;4.32;;;2.80;;
74233;SDS011;62591;55.764;37.718;2023-02-28T13:35:56;6.50;;;2.70;;
74233;SDS011;62591;55.764;37.718;2023-02-28T13:38:39;4.90;;;2.85;;
74233;SDS011;62591;55.764;37.718;2023-02-28T13:44:15;5.13;;;3.20;;
74233;SDS011;62591;55.764;37.718;2023-02-28T13:49:51;4.70;;;2.17;;
74233;SDS011;62591;55.764;37.718;2023-02-28T13:52:23;7.03;;;2.78;;
74233;SDS011;62591;55.764;37.718;2023-02-28T13:54:57;6.15;;;2.97;;
74233;SDS011;62591;55.764;37.718;2023-02-28T13:58:02;6.45;;;3.20;;
74233;SDS011;62591;55.764;37.718;2023-02-28T14:00:43;4.85;;;2.65;;
74233;SDS011;62591;55.764;37.718;2023-02-28T14:03:32;3.95;;;2.40;;
74233;SDS011;62591;55.764;37.718;2023-02-28T14:06:15;4.97;;;3.00;;
74233;SDS011;62591;55.764;37.718;2023-02-28T14:08:53;8.45;;;2.75;;
74233;SDS011;62591;55.764;37.718;2023-02-28T14:11:29;4.75;;;2.53;;
74233;SDS011;62591;55.764;37.718;2023-02-28T14:14:01;6.30;;;3.00;;
74233;SDS011;62591;55.764;37.718;2023-02-28T14:16:36;5.85;;;3.10;;
74233;SDS011;62591;55.764;37.718;2023-02-28T14:19:11;5.82;;;2.90;;
74233;SDS011;62591;55.764;37.718;2023-02-28T14:21:49;5.82;;;2.83;;
74233;SDS011;62591;55.764;37.718;2023-02-28T14:24:42;5.63;;;2.70;;
74233;SDS011;62591;55.764;37.718;2023-02-28T14:33:22;5.47;;;3.03;;
74233;SDS011;62591;55.764;37.718;2023-02-28T14:36:06;7.88;;;3.72;;
74233;SDS011;62591;55.764;37.718;2023-02-28T14:38:40;5.55;;;2.85;;
74233;SDS011;62591;55.764;37.718;2023-02-28T14:41:18;4.00;;;2.63;;
74233;SDS011;62591;55.764;37.718;2023-02-28T14:43:53;4.32;;;2.83;;
74233;SDS011;62591;55.764;37.718;2023-02-28T14:49:15;5.32;;;2.83;;
74233;SDS011;62591;55.764;37.718;2023-02-28T14:51:48;5.53;;;3.17;;
74233;SDS011;62591;55.764;37.718;2023-02-28T14:54:19;6.32;;;2.75;;
74233;SDS011;62591;55.764;37.718;2023-02-28T14:56:51;5.55;;;2.42;;
74233;SDS011;62591;55.764;37.718;2023-02-28T14:59:23;4.13;;;2.63;;
74233;SDS011;62591;55.764;37.718;2023-02-28T15:04:53;5.53;;;2.67;;
74233;SDS011;62591;55.764;37.718;2023-02-28T15:07:23;4.78;;;2.97;;
74233;SDS011;62591;55.764;37.718;2023-02-28T15:10:09;4.38;;;2.72;;
74233;SDS011;62591;55.764;37.718;2023-02-28T15:12:41;5.07;;;2.95;;
74233;SDS011;62591;55.764;37.718;2023-02-28T15:15:16;6.35;;;3.25;;
74233;SDS011;62591;55.764;37.718;2023-02-28T15:17:58;6.80;;;3.20;;
74233;SDS011;62591;55.764;37.718;2023-02-28T15:20:30;5.88;;;3.30;;
74233;SDS011;62591;55.764;37.718;2023-02-28T15:23:00;4.60;;;3.00;;
74233;SDS011;62591;55.764;37.718;2023-02-28T15:25:29;8.13;;;3.65;;
74233;SDS011;62591;55.764;37.718;2023-02-28T15:27:58;6.32;;;2.67;;
74233;SDS011;62591;55.764;37.718;2023-02-28T15:30:27;4.68;;;2.97;;
74233;SDS011;62591;55.764;37.718;2023-02-28T15:33:03;7.35;;;3.30;;
74233;SDS011;62591;55.764;37.718;2023-02-28T15:35:35;5.53;;;3.50;;
74233;SDS011;62591;55.764;37.718;2023-02-28T15:38:13;6.45;;;3.60;;
74233;SDS011;62591;55.764;37.718;2023-02-28T15:40:49;4.95;;;2.90;;
74233;SDS011;62591;55.764;37.718;2023-02-28T15:43:24;5.50;;;3.25;;
74233;SDS011;62591;55.764;37.718;2023-02-28T15:45:56;6.85;;;2.83;;
74233;SDS011;62591;55.764;37.718;2023-02-28T15:48:30;6.70;;;3.60;;
74233;SDS011;62591;55.764;37.718;2023-02-28T15:51:01;5.05;;;2.95;;
74233;SDS011;62591;55.764;37.718;2023-02-28T15:53:34;5.53;;;2.70;;